MiSS Monie — WCZ9166 — position and weather

sailwx.info

Track history (hours):
 
Tides and Currents Weather Stations Pressure Air Temp Water Temp Dewpoint Dewpoint Depression Visibility Wind Speed Wind Dir Waves Ship Positions

MiSS Monie

Owner: MISS MONIE TOWING LLC, HULL, TX. More information available from US FCC via Universal Licensing System and Coast Guard Vessel Documentation Center.

Last reported at 2018-Jan-20 05:53 UTC. Time now 2018-Jan-23 18:10 UTC.
Position N 29°43' W 095°01'.

Length 20 m.

Type: Ship. MMSI: 366962010.

Date/timePositionNaut miles runAvg speedWind from/ knotsBaromVisibWave heightAir tempDewpointWater temp
2018-Jan-20 05:53N 29°43' W 095°01'2 6.4
2018-Jan-20 05:30N 29°41' W 094°59'4 7.2
2018-Jan-20 04:53N 29°37' W 094°58'2 3.9
2018-Jan-20 04:27N 29°37' W 094°59'0 0.0
2018-Jan-20 02:12N 29°37' W 094°59'0 0.0
2018-Jan-20 01:01N 29°37' W 094°59'0 2.2
2018-Jan-20 01:01N 29°37' W 094°59'0 0.0
2018-Jan-20 00:03N 29°37' W 094°59'0 0.0
2018-Jan-19 22:39N 29°37' W 094°59'0 0.0
2018-Jan-19 21:17N 29°37' W 094°59'0 0.1
2018-Jan-19 20:50N 29°37' W 094°59'0 0.0
2018-Jan-19 20:29N 29°37' W 094°59'0 0.0
2018-Jan-19 18:50N 29°37' W 094°59'0 0.1
2018-Jan-19 18:30N 29°37' W 094°59'0 0.0
2018-Jan-19 17:56N 29°37' W 094°59'0 0.0
2018-Jan-19 17:25N 29°37' W 094°59'0 0.0
2018-Jan-19 16:57N 29°37' W 094°59'0 0.0
2018-Jan-19 16:11N 29°37' W 094°59'0 0.3
2018-Jan-19 16:00N 29°37' W 094°59'0 0.4
2018-Jan-19 15:30N 29°37' W 094°60'2 3.2
2018-Jan-19 15:00N 29°37' W 094°58'3 6.7
2018-Jan-19 14:30N 29°40' W 094°59'2 3.5
2018-Jan-19 13:59N 29°41' W 095°01'0 0.1
2018-Jan-19 13:31N 29°41' W 095°01'0 0.1
2018-Jan-19 08:30N 29°41' W 095°00'0 0.0
2018-Jan-19 06:04N 29°41' W 095°00'0 0.0
2018-Jan-19 00:49N 29°41' W 095°00'0 0.0
2018-Jan-19 00:09N 29°41' W 095°00'1 5.4
2018-Jan-19 00:00N 29°41' W 094°59'  
Track history (hours):
 
Tides and Currents Weather Stations Pressure Air Temp Water Temp Dewpoint Dewpoint Depression Visibility Wind Speed Wind Dir Waves Ship Positions

MiSS Monie

Owner: MISS MONIE TOWING LLC, HULL, TX. More information available from US FCC via Universal Licensing System and Coast Guard Vessel Documentation Center.

Last reported at 2018-Jan-20 05:53 UTC. Time now 2018-Jan-23 18:10 UTC.
Position N 29°43' W 095°01'.

Length 20 m.

Type: Ship. MMSI: 366962010.

Date/timePositionNaut miles runAvg speedWind from/ knotsBaromVisibWave heightAir tempDewpointWater temp
2018-Jan-20 05:53N 29°43' W 095°01'2 6.4
2018-Jan-20 05:30N 29°41' W 094°59'4 7.2
2018-Jan-20 04:53N 29°37' W 094°58'2 3.9
2018-Jan-20 04:27N 29°37' W 094°59'0 0.0
2018-Jan-20 02:12N 29°37' W 094°59'0 0.0
2018-Jan-20 01:01N 29°37' W 094°59'0 2.2
2018-Jan-20 01:01N 29°37' W 094°59'0 0.0
2018-Jan-20 00:03N 29°37' W 094°59'0 0.0
2018-Jan-19 22:39N 29°37' W 094°59'0 0.0
2018-Jan-19 21:17N 29°37' W 094°59'0 0.1
2018-Jan-19 20:50N 29°37' W 094°59'0 0.0
2018-Jan-19 20:29N 29°37' W 094°59'0 0.0
2018-Jan-19 18:50N 29°37' W 094°59'0 0.1
2018-Jan-19 18:30N 29°37' W 094°59'0 0.0
2018-Jan-19 17:56N 29°37' W 094°59'0 0.0
2018-Jan-19 17:25N 29°37' W 094°59'0 0.0
2018-Jan-19 16:57N 29°37' W 094°59'0 0.0
2018-Jan-19 16:11N 29°37' W 094°59'0 0.3
2018-Jan-19 16:00N 29°37' W 094°59'0 0.4
2018-Jan-19 15:30N 29°37' W 094°60'2 3.2
2018-Jan-19 15:00N 29°37' W 094°58'3 6.7
2018-Jan-19 14:30N 29°40' W 094°59'2 3.5
2018-Jan-19 13:59N 29°41' W 095°01'0 0.1
2018-Jan-19 13:31N 29°41' W 095°01'0 0.1
2018-Jan-19 08:30N 29°41' W 095°00'0 0.0
2018-Jan-19 06:04N 29°41' W 095°00'0 0.0
2018-Jan-19 00:49N 29°41' W 095°00'0 0.0
2018-Jan-19 00:09N 29°41' W 095°00'1 5.4
2018-Jan-19 00:00N 29°41' W 094°59'  

Dump ship's entire track history